Time;durP1;ratioP1;P1;durP2;ratioP2;P2;SDS_P1;SDS_P2;PMS_P1;PMS_P2;Temp;Humidity;BMP_temperature;BMP_pressure;BME280_temperature;BME280_humidity;BME280_pressure;Samples;Min_cycle;Max_cycle;Signal;HPM_P1;HPM_P2
2023/03/21 00:00:40;;;;;;;0.40;0.40;;;7.90;99.90;;;;;;5099745;28;20074;-78
2023/03/21 00:03:06;;;;;;;0.10;0.10;;;7.80;99.90;;;;;;5092445;28;20495;-79
2023/03/21 00:05:32;;;;;;;0.10;0.10;;;7.80;99.90;;;;;;5102483;28;20474;-78
2023/03/21 00:07:57;;;;;;;0.20;0.20;;;7.80;99.90;;;;;;5095918;28;20030;-78
2023/03/21 00:10:23;;;;;;;0.20;0.20;;;7.80;99.90;;;;;;5098062;28;20064;-79
2023/03/21 00:12:57;;;;;;;0.10;0.10;;;7.80;99.90;;;;;;5095789;28;20103;-78
2023/03/21 00:15:26;;;;;;;0.10;0.10;;;7.70;99.90;;;;;;5097353;28;20085;-78
2023/03/21 00:18:03;;;;;;;0.30;0.30;;;7.70;99.90;;;;;;5097153;28;20562;-78
2023/03/21 00:20:30;;;;;;;0.52;0.52;;;7.70;99.90;;;;;;5071442;28;20020;-79
2023/03/21 00:22:56;;;;;;;0.30;0.30;;;7.50;99.90;;;;;;5088041;28;20035;-78
2023/03/21 00:25:21;;;;;;;0.65;0.65;;;7.60;99.90;;;;;;5088011;28;20051;-78
2023/03/21 00:27:47;;;;;;;0.25;0.25;;;7.50;99.90;;;;;;5101341;28;20074;-78
2023/03/21 00:30:13;;;;;;;0.50;0.50;;;7.30;99.90;;;;;;5089822;28;20024;-78
2023/03/21 00:32:40;;;;;;;0.25;0.25;;;7.40;99.90;;;;;;5099666;28;20502;-78
2023/03/21 00:35:06;;;;;;;0.10;0.10;;;7.40;99.90;;;;;;5098207;28;20023;-78
2023/03/21 00:37:31;;;;;;;0.10;0.10;;;7.30;99.90;;;;;;5093584;28;20440;-78
2023/03/21 00:39:57;;;;;;;0.43;0.43;;;7.30;99.90;;;;;;5090062;28;20046;-78
2023/03/21 00:42:23;;;;;;;0.47;0.47;;;7.40;99.90;;;;;;5093626;27;20035;-78
2023/03/21 00:44:48;;;;;;;0.10;0.10;;;7.30;99.90;;;;;;5094991;28;20032;-78
2023/03/21 00:47:14;;;;;;;3.53;0.93;;;7.30;99.90;;;;;;5093135;28;20066;-78
2023/03/21 00:49:40;;;;;;;0.30;0.30;;;7.30;99.90;;;;;;5099530;28;20062;-78
2023/03/21 00:52:08;;;;;;;0.43;0.43;;;7.20;99.90;;;;;;5075667;28;20049;-77
2023/03/21 00:54:35;;;;;;;0.43;0.32;;;7.20;99.90;;;;;;5094713;28;20024;-78
2023/03/21 00:57:02;;;;;;;0.30;0.30;;;7.20;99.90;;;;;;5071212;28;20034;-78
2023/03/21 00:59:29;;;;;;;0.20;0.20;;;7.20;99.90;;;;;;5079806;28;20063;-78
2023/03/21 01:01:55;;;;;;;0.10;0.10;;;7.10;99.90;;;;;;5087132;28;20032;-78
2023/03/21 01:04:25;;;;;;;0.10;0.10;;;7.10;99.90;;;;;;5095988;28;20551;-78
2023/03/21 01:06:52;;;;;;;0.10;0.10;;;7.00;99.90;;;;;;5090955;28;20020;-79
2023/03/21 01:09:21;;;;;;;2.08;0.40;;;7.00;99.90;;;;;;5068694;28;20034;-78
2023/03/21 01:11:47;;;;;;;0.10;0.10;;;7.00;99.90;;;;;;5092890;28;20028;-78
2023/03/21 01:14:15;;;;;;;0.10;0.10;;;7.00;99.90;;;;;;5092501;28;20075;-78
2023/03/21 01:16:41;;;;;;;0.73;0.73;;;7.00;99.90;;;;;;5095043;28;20027;-78
2023/03/21 01:19:10;;;;;;;4.03;1.33;;;6.90;99.90;;;;;;5076686;28;20038;-79
2023/03/21 01:21:36;;;;;;;0.10;0.10;;;6.90;99.90;;;;;;5087724;28;20040;-78
2023/03/21 01:24:02;;;;;;;0.50;0.50;;;6.90;99.90;;;;;;5099328;28;20032;-78
2023/03/21 01:26:28;;;;;;;0.30;0.30;;;6.80;99.90;;;;;;5099068;28;20050;-77
2023/03/21 01:28:54;;;;;;;0.10;0.10;;;6.80;99.90;;;;;;5101435;28;20027;-78
2023/03/21 01:31:19;;;;;;;0.10;0.10;;;6.80;99.90;;;;;;5095181;28;20023;-77
2023/03/21 01:33:45;;;;;;;0.10;0.10;;;6.70;99.90;;;;;;5095337;28;20043;-78
2023/03/21 01:36:21;;;;;;;0.13;0.13;;;6.70;99.90;;;;;;5096342;28;20028;-78
2023/03/21 01:38:47;;;;;;;1.35;0.40;;;6.70;99.90;;;;;;5067154;28;20039;-78
2023/03/21 01:41:24;;;;;;;0.10;0.10;;;6.70;99.90;;;;;;5088442;28;20024;-78
2023/03/21 01:43:51;;;;;;;0.30;0.30;;;6.70;99.90;;;;;;5086467;28;20105;-78
2023/03/21 01:46:38;;;;;;;0.10;0.10;;;6.50;99.90;;;;;;5099035;28;20028;-78
2023/03/21 01:49:07;;;;;;;;;;;6.50;99.90;;;;;;5091416;28;20024;-78
2023/03/21 01:51:36;;;;;;;0.15;0.15;;;6.50;99.90;;;;;;5092066;28;19908;-78
2023/03/21 01:54:05;;;;;;;0.10;0.10;;;6.50;99.90;;;;;;5073605;28;20505;-78
2023/03/21 01:56:36;;;;;;;0.20;0.20;;;6.50;99.90;;;;;;5101017;28;20072;-78
2023/03/21 01:59:16;;;;;;;0.10;0.10;;;6.50;99.90;;;;;;5100542;28;20058;-78
2023/03/21 02:01:43;;;;;;;0.20;0.20;;;6.50;99.90;;;;;;5095958;28;20024;-77
2023/03/21 02:04:10;;;;;;;2.30;0.85;;;6.50;99.90;;;;;;5097743;28;20058;-77
2023/03/21 02:06:39;;;;;;;;;;;6.50;99.90;;;;;;5077957;28;20854;-77
2023/03/21 02:09:09;;;;;;;0.10;0.10;;;6.40;99.90;;;;;;5095960;28;19955;-78
2023/03/21 02:11:36;;;;;;;0.25;0.20;;;6.40;99.90;;;;;;5088827;28;20059;-78
2023/03/21 02:14:02;;;;;;;0.10;0.10;;;6.50;99.90;;;;;;5097137;28;20050;-78
2023/03/21 02:16:51;;;;;;;7.53;1.05;;;6.40;99.90;;;;;;5090516;28;20425;-78
2023/03/21 02:19:22;;;;;;;0.10;0.10;;;6.50;99.90;;;;;;5074971;28;20529;-77
2023/03/21 02:22:11;;;;;;;0.30;0.30;;;6.50;99.90;;;;;;5099664;28;20031;-78
2023/03/21 02:24:55;;;;;;;0.20;0.20;;;6.40;99.90;;;;;;5062980;28;20074;-79
2023/03/21 02:27:23;;;;;;;0.10;0.10;;;6.40;99.90;;;;;;5096968;28;20024;-79
2023/03/21 02:29:58;;;;;;;0.88;0.55;;;6.40;99.90;;;;;;5101089;28;20023;-79
2023/03/21 02:32:38;;;;;;;0.17;0.17;;;6.40;99.90;;;;;;5095372;28;20027;-78
2023/03/21 02:35:10;;;;;;;0.98;0.63;;;6.30;99.90;;;;;;5100258;28;20023;-77
2023/03/21 02:37:42;;;;;;;0.25;0.25;;;6.20;99.90;;;;;;5099572;28;20032;-77
2023/03/21 02:40:15;;;;;;;0.38;0.38;;;6.20;99.90;;;;;;5075947;28;20030;-78
2023/03/21 02:43:02;;;;;;;0.20;0.20;;;6.20;99.90;;;;;;5098896;28;20110;-79
2023/03/21 02:45:31;;;;;;;;;;;6.20;99.90;;;;;;5092913;28;20040;-79
2023/03/21 02:48:05;;;;;;;0.10;0.10;;;6.10;99.90;;;;;;5092232;28;19918;-78
2023/03/21 02:50:45;;;;;;;0.03;0.03;;;6.10;99.90;;;;;;5094316;28;20027;-77
2023/03/21 02:53:14;;;;;;;0.20;0.20;;;6.20;99.90;;;;;;5077891;28;20486;-77
2023/03/21 02:55:41;;;;;;;0.20;0.20;;;6.10;99.90;;;;;;5099031;28;20148;-78
2023/03/21 02:58:10;;;;;;;0.10;0.10;;;6.00;99.90;;;;;;5094493;28;20051;-77
2023/03/21 03:00:37;;;;;;;0.10;0.10;;;6.00;99.90;;;;;;5072272;28;20070;-77
2023/03/21 03:03:03;;;;;;;0.00;0.00;;;5.90;99.90;;;;;;5093513;28;20048;-78
2023/03/21 03:05:33;;;;;;;0.10;0.10;;;5.90;99.90;;;;;;5095846;28;20470;-78
2023/03/21 03:08:28;;;;;;;0.40;0.40;;;5.90;99.90;;;;;;5094946;28;20020;-78
2023/03/21 03:11:10;;;;;;;0.30;0.30;;;5.90;99.90;;;;;;5064816;28;20046;-77
2023/03/21 03:13:54;;;;;;;0.00;0.00;;;5.80;99.90;;;;;;5097201;28;20108;-77
2023/03/21 03:16:30;;;;;;;0.00;0.00;;;5.80;99.90;;;;;;5093086;28;20100;-77
2023/03/21 03:18:59;;;;;;;0.20;0.20;;;5.80;99.90;;;;;;5090361;28;20884;-77
2023/03/21 03:21:33;;;;;;;2.80;1.25;;;5.80;99.90;;;;;;5094441;28;20058;-77
2023/03/21 03:24:15;;;;;;;0.28;0.28;;;5.80;99.90;;;;;;5097770;28;20046;-77
2023/03/21 03:27:01;;;;;;;0.20;0.20;;;5.70;99.90;;;;;;5094729;28;20028;-77
2023/03/21 03:29:28;;;;;;;0.75;0.73;;;5.60;99.90;;;;;;5096236;28;20020;-78
2023/03/21 03:32:17;;;;;;;0.32;0.32;;;5.60;99.90;;;;;;5080201;28;20133;-78
2023/03/21 03:34:50;;;;;;;0.52;0.45;;;5.60;99.90;;;;;;5071634;28;20437;-78
2023/03/21 03:37:20;;;;;;;0.47;0.47;;;5.60;99.90;;;;;;5073503;28;20078;-78
2023/03/21 03:39:56;;;;;;;0.20;0.20;;;5.60;99.90;;;;;;5094477;28;20477;-78
2023/03/21 03:42:32;;;;;;;0.13;0.10;;;5.60;99.90;;;;;;5094131;28;20027;-78
2023/03/21 03:44:58;;;;;;;;;;;5.60;99.90;;;;;;5097946;28;20024;-77
2023/03/21 03:47:37;;;;;;;0.20;0.20;;;5.60;99.90;;;;;;5071643;28;19936;-78
2023/03/21 03:50:09;;;;;;;0.13;0.13;;;5.60;99.90;;;;;;5090743;28;20024;-78
2023/03/21 03:52:43;;;;;;;2.80;2.47;;;5.60;99.90;;;;;;5078586;28;20067;-79
2023/03/21 03:55:12;;;;;;;0.03;0.03;;;5.60;99.90;;;;;;5097051;28;20081;-78
2023/03/21 03:57:38;;;;;;;0.10;0.10;;;5.60;99.90;;;;;;5096652;28;20382;-79
2023/03/21 04:00:10;;;;;;;1.25;0.52;;;5.60;99.90;;;;;;5103903;28;20034;-78
2023/03/21 04:02:36;;;;;;;0.10;0.10;;;5.60;99.90;;;;;;5098650;28;20039;-78
2023/03/21 04:05:03;;;;;;;0.10;0.10;;;5.60;99.90;;;;;;5093470;28;20050;-78
2023/03/21 04:07:29;;;;;;;0.27;0.27;;;5.70;99.90;;;;;;5090608;28;20497;-78
2023/03/21 04:09:54;;;;;;;0.10;0.10;;;5.60;99.90;;;;;;5095328;28;20024;-78
2023/03/21 04:12:20;;;;;;;0.20;0.20;;;5.60;99.90;;;;;;5098796;28;20169;-78
2023/03/21 04:14:46;;;;;;;0.20;0.20;;;5.60;99.90;;;;;;5100311;28;20028;-78
2023/03/21 04:17:11;;;;;;;0.88;0.40;;;5.60;99.90;;;;;;5084544;28;20027;-78
2023/03/21 04:19:37;;;;;;;0.10;0.10;;;5.60;99.90;;;;;;5096788;28;20028;-78
2023/03/21 04:22:03;;;;;;;0.47;0.47;;;5.60;99.90;;;;;;5072563;28;20020;-78
2023/03/21 04:24:32;;;;;;;2.22;0.63;;;5.60;99.90;;;;;;5088823;28;20043;-77
2023/03/21 04:26:58;;;;;;;0.22;0.22;;;5.60;99.90;;;;;;5086767;28;20125;-78
2023/03/21 04:29:24;;;;;;;0.17;0.17;;;5.60;99.90;;;;;;5072325;28;20792;-76
2023/03/21 04:31:50;;;;;;;0.10;0.10;;;5.70;99.90;;;;;;5073199;28;20028;-77
2023/03/21 04:34:16;;;;;;;0.30;0.30;;;5.70;99.90;;;;;;5094447;28;20051;-77
2023/03/21 04:36:52;;;;;;;0.32;0.32;;;5.70;99.90;;;;;;5101439;28;20086;-77
2023/03/21 04:39:19;;;;;;;1.73;1.63;;;5.70;99.90;;;;;;5099973;28;20046;-78
2023/03/21 04:41:45;;;;;;;0.10;0.10;;;5.60;99.90;;;;;;5081243;28;20134;-77
2023/03/21 04:44:13;;;;;;;1.65;1.40;;;5.70;99.90;;;;;;5094842;28;20636;-77
2023/03/21 04:46:39;;;;;;;0.25;0.25;;;5.70;99.90;;;;;;5076610;28;20039;-77
2023/03/21 04:49:05;;;;;;;0.43;0.43;;;5.70;99.90;;;;;;5095087;28;20024;-77
2023/03/21 04:51:32;;;;;;;0.10;0.10;;;5.60;99.90;;;;;;5096005;28;20031;-78
2023/03/21 04:53:58;;;;;;;0.20;0.20;;;5.60;99.90;;;;;;5096008;28;20054;-78
2023/03/21 04:56:32;;;;;;;0.60;0.60;;;5.70;99.90;;;;;;5094832;28;20020;-77
2023/03/21 04:58:59;;;;;;;0.10;0.10;;;5.70;99.90;;;;;;5072381;28;20483;-78
2023/03/21 05:01:29;;;;;;;;;;;5.60;99.90;;;;;;5080297;28;20816;-79
2023/03/21 05:03:59;;;;;;;0.10;0.10;;;5.60;99.90;;;;;;5088368;28;19920;-79
2023/03/21 05:06:26;;;;;;;0.10;0.10;;;5.60;99.90;;;;;;5090897;28;20042;-77
2023/03/21 05:08:55;;;;;;;0.25;0.25;;;5.60;99.90;;;;;;5100399;28;20027;-76
2023/03/21 05:11:21;;;;;;;0.10;0.10;;;5.50;99.90;;;;;;5085476;28;20077;-77
2023/03/21 05:13:47;;;;;;;0.83;0.50;;;5.50;99.90;;;;;;5096055;28;20169;-77
2023/03/21 05:16:13;;;;;;;0.10;0.10;;;5.40;99.90;;;;;;5076713;28;20282;-77
2023/03/21 05:18:38;;;;;;;0.20;0.20;;;5.30;99.90;;;;;;5083913;28;20024;-78
2023/03/21 05:21:09;;;;;;;0.57;0.57;;;5.30;99.90;;;;;;5095766;28;20432;-78
2023/03/21 05:23:40;;;;;;;0.10;0.10;;;5.20;99.90;;;;;;5091889;28;20012;-78
2023/03/21 05:26:08;;;;;;;0.00;0.00;;;5.20;99.90;;;;;;5091023;28;20035;-78
2023/03/21 05:28:38;;;;;;;0.10;0.10;;;5.10;99.90;;;;;;5083437;28;20027;-78
2023/03/21 05:31:05;;;;;;;0.52;0.52;;;5.10;99.90;;;;;;5094769;28;20494;-78
2023/03/21 05:33:31;;;;;;;0.38;0.38;;;5.10;99.90;;;;;;5093862;28;20058;-77
2023/03/21 05:35:57;;;;;;;0.10;0.10;;;5.10;99.90;;;;;;5091032;28;20028;-77
2023/03/21 05:38:24;;;;;;;0.17;0.17;;;5.10;99.90;;;;;;5090950;28;20837;-77
2023/03/21 05:40:50;;;;;;;;;;;5.20;99.90;;;;;;5086350;28;20062;-76
2023/03/21 05:43:16;;;;;;;0.03;0.03;;;5.20;99.90;;;;;;5092495;28;20326;-76
2023/03/21 05:45:42;;;;;;;0.77;0.65;;;5.10;99.90;;;;;;5097708;28;20030;-76
2023/03/21 05:48:08;;;;;;;0.15;0.15;;;5.10;99.90;;;;;;5090742;28;20130;-76
2023/03/21 05:50:34;;;;;;;0.20;0.20;;;5.10;99.90;;;;;;5101453;28;20024;-76
2023/03/21 05:52:59;;;;;;;0.20;0.20;;;5.20;99.90;;;;;;5097011;28;20038;-76
2023/03/21 05:55:25;;;;;;;0.47;0.47;;;5.10;99.90;;;;;;5101638;28;20514;-76
2023/03/21 05:57:51;;;;;;;0.10;0.10;;;5.10;99.90;;;;;;5074791;28;20053;-75
2023/03/21 06:00:17;;;;;;;0.10;0.10;;;5.20;99.90;;;;;;5096962;28;20667;-77
2023/03/21 06:02:43;;;;;;;0.57;0.55;;;5.20;99.90;;;;;;5085922;28;20034;-76
2023/03/21 06:05:09;;;;;;;0.23;0.23;;;5.20;99.90;;;;;;5104555;28;20036;-76
2023/03/21 06:07:35;;;;;;;0.00;0.00;;;5.20;99.90;;;;;;5077710;28;20106;-77
2023/03/21 06:10:03;;;;;;;0.10;0.10;;;5.30;99.90;;;;;;5079208;28;20098;-76
2023/03/21 06:12:29;;;;;;;0.20;0.20;;;5.20;99.90;;;;;;5098115;28;20444;-77
2023/03/21 06:14:55;;;;;;;0.10;0.10;;;5.20;99.90;;;;;;5098612;28;20024;-78
2023/03/21 06:17:21;;;;;;;0.10;0.10;;;5.30;99.90;;;;;;5104173;28;20026;-80
2023/03/21 06:19:46;;;;;;;1.05;1.00;;;5.30;99.90;;;;;;5099425;28;20112;-78
2023/03/21 06:22:12;;;;;;;0.10;0.10;;;5.50;99.90;;;;;;5080176;28;20115;-78
2023/03/21 06:24:38;;;;;;;0.30;0.30;;;5.60;99.90;;;;;;5098333;28;20107;-78
2023/03/21 06:27:04;;;;;;;0.20;0.20;;;5.70;99.90;;;;;;5080122;28;20024;-78
2023/03/21 06:29:30;;;;;;;0.03;0.03;;;5.90;99.90;;;;;;5101227;28;20027;-77
2023/03/21 06:31:55;;;;;;;2.40;1.50;;;6.20;99.90;;;;;;5097634;28;20024;-78
2023/03/21 06:34:21;;;;;;;0.45;0.40;;;6.20;99.90;;;;;;5103128;28;20054;-77
2023/03/21 06:36:47;;;;;;;0.30;0.30;;;6.40;99.90;;;;;;5095759;28;20028;-79
2023/03/21 06:39:14;;;;;;;0.10;0.10;;;6.30;99.90;;;;;;5096771;28;20031;-78
2023/03/21 06:41:40;;;;;;;0.17;0.17;;;6.40;99.90;;;;;;5077803;28;20032;-79
2023/03/21 06:44:06;;;;;;;7.05;1.08;;;6.50;99.90;;;;;;5105068;28;20032;-79
2023/03/21 06:46:32;;;;;;;0.63;0.63;;;6.50;99.90;;;;;;5104682;28;20032;-78
2023/03/21 06:48:57;;;;;;;0.17;0.17;;;6.50;99.90;;;;;;5085894;28;20118;-79
2023/03/21 06:51:23;;;;;;;0.68;0.68;;;6.60;99.90;;;;;;5103720;28;20023;-79
2023/03/21 06:53:49;;;;;;;0.22;0.22;;;6.80;99.90;;;;;;5104882;28;20616;-78
2023/03/21 06:56:15;;;;;;;0.20;0.20;;;7.20;99.90;;;;;;5105317;28;20025;-79
2023/03/21 06:58:41;;;;;;;1.50;1.07;;;7.90;99.90;;;;;;5087001;28;20028;-79
2023/03/21 07:01:08;;;;;;;0.10;0.10;;;7.90;99.90;;;;;;5104460;28;20257;-79
2023/03/21 07:03:34;;;;;;;0.30;0.30;;;7.40;99.90;;;;;;5103159;28;20062;-79
2023/03/21 07:06:10;;;;;;;0.30;0.30;;;7.60;99.90;;;;;;5101874;28;20036;-79
2023/03/21 07:08:37;;;;;;;0.25;0.25;;;7.90;99.90;;;;;;5101595;27;20126;-79
2023/03/21 07:11:04;;;;;;;0.65;0.45;;;7.90;99.90;;;;;;5105825;28;20026;-79
2023/03/21 07:13:30;;;;;;;0.25;0.25;;;8.10;99.90;;;;;;5096798;28;20043;-78
2023/03/21 07:15:56;;;;;;;0.10;0.10;;;7.90;99.90;;;;;;5103814;28;20059;-78
2023/03/21 07:18:22;;;;;;;0.73;0.73;;;7.50;99.90;;;;;;5102020;28;20082;-79
2023/03/21 07:20:49;;;;;;;0.20;0.20;;;7.60;99.90;;;;;;5104770;28;20034;-78
2023/03/21 07:23:17;;;;;;;0.20;0.20;;;8.10;99.90;;;;;;5102934;28;20753;-79
2023/03/21 07:25:43;;;;;;;0.10;0.10;;;8.10;99.90;;;;;;5099069;27;20065;-79
2023/03/21 07:28:08;;;;;;;0.15;0.15;;;8.10;99.90;;;;;;5103314;28;20443;-79
2023/03/21 07:30:35;;;;;;;0.32;0.32;;;8.20;99.90;;;;;;5103889;28;20024;-79
2023/03/21 07:33:01;;;;;;;0.10;0.10;;;8.10;99.90;;;;;;5084748;28;20075;-79
2023/03/21 07:35:27;;;;;;;0.45;0.45;;;8.50;99.90;;;;;;5103462;28;20043;-79
2023/03/21 07:37:53;;;;;;;0.35;0.35;;;8.90;99.90;;;;;;5098612;28;20028;-78
2023/03/21 07:40:18;;;;;;;0.17;0.17;;;9.30;99.60;;;;;;5103214;28;20050;-78
2023/03/21 07:42:44;;;;;;;0.10;0.10;;;9.10;99.80;;;;;;5103882;28;20483;-78
2023/03/21 07:45:13;;;;;;;0.10;0.10;;;9.10;99.90;;;;;;5082169;28;20027;-78
2023/03/21 07:47:40;;;;;;;0.15;0.15;;;9.20;99.90;;;;;;5103843;28;20081;-79
2023/03/21 07:50:06;;;;;;;3.33;0.80;;;9.90;99.00;;;;;;5098667;28;20019;-78
2023/03/21 07:52:31;;;;;;;0.10;0.10;;;10.20;98.60;;;;;;5078236;28;20439;-78
2023/03/21 07:54:57;;;;;;;0.38;0.22;;;10.40;98.00;;;;;;5081941;28;20038;-79
2023/03/21 07:57:23;;;;;;;0.10;0.10;;;10.70;96.90;;;;;;5104331;28;20081;-79
2023/03/21 07:59:49;;;;;;;0.28;0.28;;;11.00;95.90;;;;;;5103327;28;20626;-79
2023/03/21 08:02:16;;;;;;;0.10;0.10;;;11.00;96.20;;;;;;5096684;28;20031;-79
2023/03/21 08:04:42;;;;;;;0.45;0.45;;;11.50;94.90;;;;;;5102515;28;20062;-78
2023/03/21 08:07:09;;;;;;;0.20;0.20;;;11.80;94.00;;;;;;5102938;28;20024;-78
2023/03/21 08:09:36;;;;;;;0.00;0.00;;;11.80;93.90;;;;;;5085880;28;20556;-79
2023/03/21 08:12:03;;;;;;;0.10;0.10;;;12.00;93.50;;;;;;5094373;28;20043;-79
2023/03/21 08:14:28;;;;;;;;;;;12.30;92.70;;;;;;5078800;28;20077;-79
2023/03/21 08:16:54;;;;;;;0.30;0.27;;;12.60;91.90;;;;;;5100440;28;20024;-79
2023/03/21 08:19:20;;;;;;;0.40;0.40;;;12.70;91.20;;;;;;5101945;28;20026;-79
2023/03/21 08:21:48;;;;;;;0.20;0.20;;;12.80;90.70;;;;;;5087706;28;20039;-78
2023/03/21 08:24:14;;;;;;;0.10;0.10;;;13.10;90.60;;;;;;5095119;27;20689;-79
2023/03/21 08:26:41;;;;;;;0.10;0.10;;;14.00;88.40;;;;;;5098597;28;20910;-78
2023/03/21 08:29:07;;;;;;;;;;;13.70;87.10;;;;;;5093654;28;20622;-79
2023/03/21 08:31:32;;;;;;;0.20;0.20;;;14.00;87.80;;;;;;5100005;28;19907;-79
2023/03/21 08:33:58;;;;;;;0.17;0.17;;;14.00;88.10;;;;;;5087149;28;20038;-78
2023/03/21 08:36:25;;;;;;;0.20;0.20;;;14.00;86.10;;;;;;5094256;28;20094;-79
2023/03/21 08:38:55;;;;;;;5.03;0.85;;;14.30;87.10;;;;;;5100938;28;20024;-79
2023/03/21 08:41:23;;;;;;;0.00;0.00;;;14.40;87.30;;;;;;5101917;28;20032;-79
2023/03/21 08:43:49;;;;;;;0.20;0.20;;;13.90;87.10;;;;;;5102837;28;20026;-79
2023/03/21 08:46:15;;;;;;;0.00;0.00;;;14.20;87.10;;;;;;5095232;28;20072;-79
2023/03/21 08:48:41;;;;;;;0.37;0.37;;;14.30;86.50;;;;;;5094650;28;20039;-78
2023/03/21 08:51:07;;;;;;;0.57;0.57;;;14.60;84.30;;;;;;5089601;28;20026;-79
2023/03/21 08:53:32;;;;;;;0.30;0.30;;;14.90;84.10;;;;;;5098518;28;20032;-80
2023/03/21 08:55:58;;;;;;;0.30;0.30;;;15.30;84.60;;;;;;5089163;28;20262;-79
2023/03/21 08:58:24;;;;;;;0.07;0.07;;;15.70;81.80;;;;;;5102112;28;20039;-79
2023/03/21 09:00:50;;;;;;;0.10;0.10;;;16.00;79.80;;;;;;5092772;28;20093;-79
2023/03/21 09:03:16;;;;;;;0.22;0.22;;;16.70;79.00;;;;;;5080589;28;20097;-79
2023/03/21 09:05:44;;;;;;;0.03;0.03;;;16.80;78.10;;;;;;5088540;28;20036;-79
2023/03/21 09:08:11;;;;;;;0.28;0.28;;;17.10;79.60;;;;;;5091918;28;20483;-78
2023/03/21 09:10:37;;;;;;;0.30;0.30;;;17.20;75.50;;;;;;5101122;28;20027;-79
2023/03/21 09:13:04;;;;;;;0.08;0.08;;;17.20;75.90;;;;;;5093322;28;20084;-79
2023/03/21 09:15:30;;;;;;;0.10;0.10;;;17.30;74.30;;;;;;5097942;28;20073;-79
2023/03/21 09:18:13;;;;;;;3.25;0.73;;;17.40;74.40;;;;;;5090384;28;20510;-79
2023/03/21 09:20:41;;;;;;;3.75;0.32;;;17.50;72.30;;;;;;5095633;28;20126;-79
2023/03/21 09:23:09;;;;;;;0.10;0.10;;;17.40;74.10;;;;;;5071598;28;20035;-79
2023/03/21 09:25:35;;;;;;;0.10;0.10;;;17.10;75.00;;;;;;5100602;28;20094;-79
2023/03/21 09:28:03;;;;;;;0.10;0.10;;;17.50;73.70;;;;;;5097966;28;20110;-79
2023/03/21 09:30:31;;;;;;;0.10;0.10;;;17.40;77.50;;;;;;5102495;28;20096;-80
2023/03/21 09:33:02;;;;;;;0.10;0.10;;;17.40;76.80;;;;;;5092177;28;20027;-79
2023/03/21 09:35:28;;;;;;;0.00;0.00;;;17.10;73.80;;;;;;5074888;28;20023;-79
2023/03/21 09:37:58;;;;;;;0.30;0.30;;;17.30;73.60;;;;;;5100208;28;20027;-79
2023/03/21 09:40:47;;;;;;;0.45;0.45;;;16.90;75.20;;;;;;5101655;28;20020;-79
2023/03/21 09:43:43;;;;;;;0.30;0.30;;;16.80;74.70;;;;;;5066318;28;20089;-80
2023/03/21 09:46:48;;;;;;;0.00;0.00;;;17.90;75.70;;;;;;5099212;28;20118;-79
2023/03/21 09:49:24;;;;;;;0.20;0.20;;;18.30;76.80;;;;;;5097668;28;20031;-79
2023/03/21 09:51:53;;;;;;;0.30;0.30;;;18.90;75.30;;;;;;5089862;28;20035;-79
2023/03/21 09:54:32;;;;;;;0.50;0.50;;;19.60;72.80;;;;;;5098988;28;20048;-78
2023/03/21 09:57:04;;;;;;;0.52;0.52;;;19.50;74.80;;;;;;5091457;28;20039;-79
2023/03/21 09:59:36;;;;;;;0.10;0.10;;;19.60;73.10;;;;;;5100430;28;20066;-79
2023/03/21 10:02:18;;;;;;;0.22;0.22;;;19.20;72.50;;;;;;5093562;28;20031;-79
2023/03/21 10:04:45;;;;;;;0.45;0.38;;;19.20;70.70;;;;;;5094459;28;20062;-79
2023/03/21 10:07:17;;;;;;;0.10;0.10;;;18.70;73.90;;;;;;5091931;28;20098;-80
2023/03/21 10:09:46;;;;;;;0.35;0.35;;;18.70;73.70;;;;;;5064515;28;20043;-79
2023/03/21 10:12:20;;;;;;;1.55;0.63;;;18.60;74.40;;;;;;5086947;28;20592;-79
2023/03/21 10:14:57;;;;;;;0.28;0.28;;;18.90;72.90;;;;;;5089957;28;20835;-79
2023/03/21 10:17:36;;;;;;;0.77;0.77;;;18.80;73.70;;;;;;5097850;28;20032;-79
2023/03/21 10:20:20;;;;;;;0.22;0.20;;;18.30;75.00;;;;;;5091644;28;20028;-79
2023/03/21 10:22:48;;;;;;;0.30;0.25;;;17.80;75.00;;;;;;5096707;28;20079;-79
2023/03/21 10:25:20;;;;;;;0.00;0.00;;;17.30;75.40;;;;;;5089606;28;20024;-79
2023/03/21 10:27:48;;;;;;;0.10;0.10;;;17.30;75.20;;;;;;5085477;28;20032;-79
2023/03/21 10:30:36;;;;;;;0.25;0.25;;;17.00;73.70;;;;;;5093922;28;20032;-79
2023/03/21 10:33:04;;;;;;;0.10;0.10;;;17.50;75.20;;;;;;5087465;28;20028;-79
2023/03/21 10:35:35;;;;;;;0.32;0.32;;;17.70;78.30;;;;;;5097233;28;20051;-79
2023/03/21 10:38:03;;;;;;;0.10;0.10;;;17.30;75.60;;;;;;5097265;28;20096;-79
2023/03/21 10:40:28;;;;;;;0.17;0.17;;;17.20;78.20;;;;;;5103899;28;20070;-79
2023/03/21 10:42:56;;;;;;;0.00;0.00;;;17.00;76.00;;;;;;5091736;28;20463;-79
2023/03/21 10:45:22;;;;;;;0.35;0.35;;;16.80;77.10;;;;;;5097045;28;20062;-79
2023/03/21 10:47:50;;;;;;;0.10;0.10;;;17.00;78.90;;;;;;5085872;28;20023;-79
2023/03/21 10:50:25;;;;;;;0.00;0.00;;;17.10;80.00;;;;;;5093446;28;20036;-79
2023/03/21 10:52:59;;;;;;;0.20;0.20;;;17.50;78.40;;;;;;5093739;28;20063;-79
2023/03/21 10:55:30;;;;;;;0.00;0.00;;;17.10;78.80;;;;;;5095767;28;20032;-79
2023/03/21 10:58:07;;;;;;;0.10;0.10;;;17.20;78.10;;;;;;5091380;28;20827;-80
2023/03/21 11:00:40;;;;;;;0.00;0.00;;;17.20;76.70;;;;;;5099018;28;20062;-79
2023/03/21 11:03:19;;;;;;;0.08;0.08;;;17.20;75.70;;;;;;5094161;28;20023;-80
2023/03/21 11:05:46;;;;;;;0.00;0.00;;;17.10;76.30;;;;;;5097765;28;20030;-79
2023/03/21 11:08:16;;;;;;;0.10;0.10;;;16.90;76.70;;;;;;5099091;28;20024;-79
2023/03/21 11:10:59;;;;;;;0.10;0.10;;;17.00;74.50;;;;;;5091390;28;20055;-79
2023/03/21 11:13:40;;;;;;;0.57;0.52;;;17.00;73.40;;;;;;5096060;28;20054;-79
2023/03/21 11:16:10;;;;;;;0.10;0.10;;;16.90;74.90;;;;;;5089519;28;20536;-79
2023/03/21 11:18:43;;;;;;;0.30;0.30;;;16.80;76.10;;;;;;5086830;28;20028;-79
2023/03/21 11:21:12;;;;;;;0.10;0.10;;;16.50;76.50;;;;;;5100741;28;20651;-79
2023/03/21 11:23:48;;;;;;;1.48;0.40;;;16.50;77.40;;;;;;5103245;28;20063;-80
2023/03/21 11:26:28;;;;;;;;;;;16.40;75.90;;;;;;5096900;28;20076;-79
2023/03/21 11:28:54;;;;;;;1.55;0.45;;;16.20;78.30;;;;;;5097013;28;19908;-79
2023/03/21 11:31:23;;;;;;;0.00;0.00;;;15.90;79.10;;;;;;5103860;28;20073;-79
2023/03/21 11:33:49;;;;;;;0.38;0.38;;;16.10;79.50;;;;;;5077833;28;20040;-80
2023/03/21 11:36:18;;;;;;;3.63;0.98;;;16.60;77.50;;;;;;5079088;28;20024;-79
2023/03/21 11:38:48;;;;;;;0.20;0.20;;;16.70;77.20;;;;;;5096593;28;20481;-79
2023/03/21 11:41:29;;;;;;;0.52;0.52;;;16.70;77.30;;;;;;5073096;28;20023;-79
2023/03/21 11:43:56;;;;;;;0.08;0.08;;;16.50;78.10;;;;;;5094500;28;20027;-79
2023/03/21 11:46:24;;;;;;;0.20;0.20;;;16.90;76.50;;;;;;5103762;28;20030;-79
2023/03/21 11:48:50;;;;;;;0.32;0.32;;;17.00;75.90;;;;;;5098527;28;20534;-79
2023/03/21 11:51:45;;;;;;;0.30;0.30;;;16.90;77.10;;;;;;5075485;28;20034;-80
2023/03/21 11:54:44;;;;;;;1.10;0.57;;;16.30;79.70;;;;;;5092631;28;20040;-79
2023/03/21 11:57:36;;;;;;;0.13;0.13;;;16.40;79.40;;;;;;5096253;28;20806;-80
2023/03/21 12:00:22;;;;;;;0.20;0.20;;;16.40;77.10;;;;;;5092523;28;20103;-79
2023/03/21 12:03:01;;;;;;;1.38;0.90;;;16.80;76.40;;;;;;5094540;28;20040;-79
2023/03/21 12:05:35;;;;;;;0.00;0.00;;;16.90;74.60;;;;;;5089095;28;20058;-79
2023/03/21 12:08:28;;;;;;;0.10;0.10;;;16.80;78.30;;;;;;5096605;28;20056;-80
2023/03/21 12:11:24;;;;;;;0.10;0.10;;;17.10;74.30;;;;;;5100732;28;20016;-79
2023/03/21 12:14:09;;;;;;;0.08;0.08;;;17.10;71.00;;;;;;5089349;28;20079;-79
2023/03/21 12:16:42;;;;;;;0.05;0.05;;;17.40;71.00;;;;;;5092988;28;20024;-79
2023/03/21 12:19:08;;;;;;;0.10;0.10;;;17.00;73.70;;;;;;5095784;28;20068;-80
2023/03/21 12:22:00;;;;;;;0.00;0.00;;;16.90;73.70;;;;;;5094936;28;20023;-79
2023/03/21 12:24:41;;;;;;;0.05;0.05;;;17.10;72.30;;;;;;5102459;28;20466;-79
2023/03/21 12:27:12;;;;;;;0.22;0.22;;;17.00;75.10;;;;;;5099353;28;20023;-80
2023/03/21 12:29:53;;;;;;;0.10;0.10;;;16.90;73.10;;;;;;5084179;28;20019;-80
2023/03/21 12:32:35;;;;;;;0.00;0.00;;;17.00;73.60;;;;;;5078332;28;20035;-79
2023/03/21 12:35:11;;;;;;;0.20;0.20;;;16.70;75.80;;;;;;5080270;28;20434;-79
2023/03/21 12:37:46;;;;;;;1.95;0.47;;;16.80;75.50;;;;;;5092950;28;20089;-79
2023/03/21 12:40:43;;;;;;;0.00;0.00;;;16.80;76.00;;;;;;5102622;28;20797;-80
2023/03/21 12:43:41;;;;;;;0.43;0.32;;;16.50;76.30;;;;;;5082820;28;20458;-79
2023/03/21 12:46:20;;;;;;;0.00;0.00;;;16.00;76.70;;;;;;5093720;28;20031;-78
2023/03/21 12:48:54;;;;;;;0.43;0.38;;;15.80;78.60;;;;;;5096042;28;20495;-79
2023/03/21 12:51:25;;;;;;;0.00;0.00;;;15.80;79.90;;;;;;5100231;28;20016;-80
2023/03/21 12:54:06;;;;;;;0.30;0.30;;;16.00;81.40;;;;;;5091969;28;20503;-78
2023/03/21 12:56:45;;;;;;;0.10;0.10;;;15.80;82.40;;;;;;5089205;28;20034;-79
2023/03/21 12:59:30;;;;;;;0.75;0.43;;;16.00;79.90;;;;;;5092237;28;20101;-79
2023/03/21 13:02:04;;;;;;;0.35;0.35;;;16.30;81.80;;;;;;5094300;28;20059;-79
2023/03/21 13:04:49;;;;;;;0.10;0.10;;;16.50;81.30;;;;;;5097316;28;20526;-79
2023/03/21 13:07:18;;;;;;;0.10;0.10;;;16.80;79.10;;;;;;5101928;28;20465;-79
2023/03/21 13:09:45;;;;;;;0.20;0.20;;;17.00;80.80;;;;;;5090118;28;20027;-79
2023/03/21 13:12:23;;;;;;;0.10;0.10;;;16.80;80.30;;;;;;5097079;28;20028;-79